sensor_id;sensor_type;location;lat;lon;timestamp;P1;durP1;ratioP1;P2;durP2;ratioP2
45893;SDS011;31603;51.148;16.932;2022-09-09T00:02:03;16.33;;;12.60;;
45893;SDS011;31603;51.148;16.932;2022-09-09T00:04:40;13.98;;;11.77;;
45893;SDS011;31603;51.148;16.932;2022-09-09T00:07:24;19.02;;;14.07;;
45893;SDS011;31603;51.148;16.932;2022-09-09T00:10:04;14.40;;;11.20;;
45893;SDS011;31603;51.148;16.932;2022-09-09T00:12:40;16.48;;;11.43;;
45893;SDS011;31603;51.148;16.932;2022-09-09T00:15:22;18.92;;;14.57;;
45893;SDS011;31603;51.148;16.932;2022-09-09T00:17:56;16.23;;;11.32;;
45893;SDS011;31603;51.148;16.932;2022-09-09T00:20:35;19.17;;;12.65;;
45893;SDS011;31603;51.148;16.932;2022-09-09T00:23:19;19.65;;;15.45;;
45893;SDS011;31603;51.148;16.932;2022-09-09T00:25:54;16.98;;;12.40;;
45893;SDS011;31603;51.148;16.932;2022-09-09T00:28:30;19.23;;;15.07;;
45893;SDS011;31603;51.148;16.932;2022-09-09T00:31:12;14.80;;;12.20;;
45893;SDS011;31603;51.148;16.932;2022-09-09T00:33:40;16.25;;;11.70;;
45893;SDS011;31603;51.148;16.932;2022-09-09T00:36:09;21.00;;;14.73;;
45893;SDS011;31603;51.148;16.932;2022-09-09T00:38:49;18.77;;;15.57;;
45893;SDS011;31603;51.148;16.932;2022-09-09T00:41:32;18.48;;;14.48;;
45893;SDS011;31603;51.148;16.932;2022-09-09T00:44:21;19.83;;;15.02;;
45893;SDS011;31603;51.148;16.932;2022-09-09T00:50:00;18.85;;;13.85;;
45893;SDS011;31603;51.148;16.932;2022-09-09T00:52:43;17.98;;;13.10;;
45893;SDS011;31603;51.148;16.932;2022-09-09T00:56:11;18.75;;;13.57;;
45893;SDS011;31603;51.148;16.932;2022-09-09T00:58:40;20.20;;;13.23;;
45893;SDS011;31603;51.148;16.932;2022-09-09T01:01:09;21.27;;;14.88;;
45893;SDS011;31603;51.148;16.932;2022-09-09T01:03:39;17.83;;;14.23;;
45893;SDS011;31603;51.148;16.932;2022-09-09T01:06:14;18.67;;;12.60;;
45893;SDS011;31603;51.148;16.932;2022-09-09T01:09:11;15.35;;;13.23;;
45893;SDS011;31603;51.148;16.932;2022-09-09T01:11:57;19.45;;;14.77;;
45893;SDS011;31603;51.148;16.932;2022-09-09T01:14:38;19.13;;;14.40;;
45893;SDS011;31603;51.148;16.932;2022-09-09T01:17:50;15.93;;;12.88;;
45893;SDS011;31603;51.148;16.932;2022-09-09T01:25:01;21.35;;;14.77;;
45893;SDS011;31603;51.148;16.932;2022-09-09T01:28:39;22.50;;;15.25;;
45893;SDS011;31603;51.148;16.932;2022-09-09T01:32:37;18.70;;;15.43;;
45893;SDS011;31603;51.148;16.932;2022-09-09T01:35:52;18.55;;;13.25;;
45893;SDS011;31603;51.148;16.932;2022-09-09T01:39:23;21.63;;;17.25;;
45893;SDS011;31603;51.148;16.932;2022-09-09T01:42:49;25.88;;;18.45;;
45893;SDS011;31603;51.148;16.932;2022-09-09T01:45:59;17.38;;;15.20;;
45893;SDS011;31603;51.148;16.932;2022-09-09T01:49:21;20.38;;;15.15;;
45893;SDS011;31603;51.148;16.932;2022-09-09T01:52:02;17.60;;;12.80;;
45893;SDS011;31603;51.148;16.932;2022-09-09T01:55:05;19.42;;;16.33;;
45893;SDS011;31603;51.148;16.932;2022-09-09T01:58:23;21.00;;;15.13;;
45893;SDS011;31603;51.148;16.932;2022-09-09T02:01:51;23.95;;;19.02;;
45893;SDS011;31603;51.148;16.932;2022-09-09T02:05:30;20.40;;;17.00;;
45893;SDS011;31603;51.148;16.932;2022-09-09T02:08:05;19.92;;;16.80;;
45893;SDS011;31603;51.148;16.932;2022-09-09T02:11:02;18.63;;;15.27;;
45893;SDS011;31603;51.148;16.932;2022-09-09T02:13:48;20.95;;;15.23;;
45893;SDS011;31603;51.148;16.932;2022-09-09T02:16:21;27.55;;;20.02;;
45893;SDS011;31603;51.148;16.932;2022-09-09T02:18:50;18.35;;;13.93;;
45893;SDS011;31603;51.148;16.932;2022-09-09T02:22:10;14.20;;;12.60;;
45893;SDS011;31603;51.148;16.932;2022-09-09T02:24:49;18.92;;;13.48;;
45893;SDS011;31603;51.148;16.932;2022-09-09T02:27:21;16.63;;;14.90;;
45893;SDS011;31603;51.148;16.932;2022-09-09T02:29:49;19.30;;;14.82;;
45893;SDS011;31603;51.148;16.932;2022-09-09T02:32:23;16.15;;;12.82;;
45893;SDS011;31603;51.148;16.932;2022-09-09T02:35:05;17.85;;;14.57;;
45893;SDS011;31603;51.148;16.932;2022-09-09T02:37:41;18.60;;;13.60;;
45893;SDS011;31603;51.148;16.932;2022-09-09T02:40:25;17.10;;;11.88;;
45893;SDS011;31603;51.148;16.932;2022-09-09T02:43:08;12.93;;;10.82;;
45893;SDS011;31603;51.148;16.932;2022-09-09T02:45:42;21.25;;;15.43;;
45893;SDS011;31603;51.148;16.932;2022-09-09T02:48:23;18.02;;;13.40;;
45893;SDS011;31603;51.148;16.932;2022-09-09T02:50:57;18.23;;;14.82;;
45893;SDS011;31603;51.148;16.932;2022-09-09T02:53:38;21.83;;;15.55;;
45893;SDS011;31603;51.148;16.932;2022-09-09T02:59:45;22.20;;;14.43;;
45893;SDS011;31603;51.148;16.932;2022-09-09T03:02:26;15.27;;;12.73;;
45893;SDS011;31603;51.148;16.932;2022-09-09T03:05:14;17.58;;;13.38;;
45893;SDS011;31603;51.148;16.932;2022-09-09T03:08:06;19.80;;;13.18;;
45893;SDS011;31603;51.148;16.932;2022-09-09T03:10:36;16.10;;;13.63;;
45893;SDS011;31603;51.148;16.932;2022-09-09T03:13:34;17.52;;;15.65;;
45893;SDS011;31603;51.148;16.932;2022-09-09T03:16:09;17.92;;;12.77;;
45893;SDS011;31603;51.148;16.932;2022-09-09T03:18:38;22.08;;;12.95;;
45893;SDS011;31603;51.148;16.932;2022-09-09T03:21:06;15.60;;;12.63;;
45893;SDS011;31603;51.148;16.932;2022-09-09T03:23:38;17.60;;;15.68;;
45893;SDS011;31603;51.148;16.932;2022-09-09T03:26:24;20.98;;;15.45;;
45893;SDS011;31603;51.148;16.932;2022-09-09T03:28:52;18.17;;;14.82;;
45893;SDS011;31603;51.148;16.932;2022-09-09T03:31:31;19.67;;;14.90;;
45893;SDS011;31603;51.148;16.932;2022-09-09T03:34:12;14.20;;;12.50;;
45893;SDS011;31603;51.148;16.932;2022-09-09T03:36:57;17.83;;;11.48;;
45893;SDS011;31603;51.148;16.932;2022-09-09T03:39:32;13.48;;;11.00;;
45893;SDS011;31603;51.148;16.932;2022-09-09T03:42:19;19.33;;;15.40;;
45893;SDS011;31603;51.148;16.932;2022-09-09T03:44:52;20.20;;;15.20;;
45893;SDS011;31603;51.148;16.932;2022-09-09T03:47:27;16.08;;;12.93;;
45893;SDS011;31603;51.148;16.932;2022-09-09T03:49:59;16.75;;;14.07;;
45893;SDS011;31603;51.148;16.932;2022-09-09T03:52:44;16.25;;;13.30;;
45893;SDS011;31603;51.148;16.932;2022-09-09T03:55:19;17.13;;;12.88;;
45893;SDS011;31603;51.148;16.932;2022-09-09T03:58:47;17.33;;;13.80;;
45893;SDS011;31603;51.148;16.932;2022-09-09T04:01:45;20.25;;;12.43;;
45893;SDS011;31603;51.148;16.932;2022-09-09T04:05:09;15.65;;;13.73;;
45893;SDS011;31603;51.148;16.932;2022-09-09T04:07:48;14.07;;;12.57;;
45893;SDS011;31603;51.148;16.932;2022-09-09T04:10:33;19.13;;;14.20;;
45893;SDS011;31603;51.148;16.932;2022-09-09T04:13:04;19.58;;;16.02;;
45893;SDS011;31603;51.148;16.932;2022-09-09T04:16:07;18.42;;;14.68;;
45893;SDS011;31603;51.148;16.932;2022-09-09T04:18:48;14.43;;;10.93;;
45893;SDS011;31603;51.148;16.932;2022-09-09T04:22:14;18.10;;;12.30;;
45893;SDS011;31603;51.148;16.932;2022-09-09T04:25:31;19.15;;;13.85;;
45893;SDS011;31603;51.148;16.932;2022-09-09T04:28:02;16.63;;;13.35;;
45893;SDS011;31603;51.148;16.932;2022-09-09T04:30:46;18.75;;;14.07;;
45893;SDS011;31603;51.148;16.932;2022-09-09T04:33:48;19.40;;;11.48;;
45893;SDS011;31603;51.148;16.932;2022-09-09T04:36:16;13.93;;;12.43;;
45893;SDS011;31603;51.148;16.932;2022-09-09T04:38:47;17.25;;;15.10;;
45893;SDS011;31603;51.148;16.932;2022-09-09T04:41:24;15.10;;;12.80;;
45893;SDS011;31603;51.148;16.932;2022-09-09T04:44:05;18.13;;;13.73;;
45893;SDS011;31603;51.148;16.932;2022-09-09T04:47:07;16.63;;;11.98;;
45893;SDS011;31603;51.148;16.932;2022-09-09T04:49:43;15.15;;;12.32;;
45893;SDS011;31603;51.148;16.932;2022-09-09T04:52:24;17.85;;;11.75;;
45893;SDS011;31603;51.148;16.932;2022-09-09T04:55:06;13.88;;;11.63;;
45893;SDS011;31603;51.148;16.932;2022-09-09T04:57:45;17.27;;;11.98;;
45893;SDS011;31603;51.148;16.932;2022-09-09T05:00:14;19.25;;;14.00;;
45893;SDS011;31603;51.148;16.932;2022-09-09T05:02:55;17.20;;;11.40;;
45893;SDS011;31603;51.148;16.932;2022-09-09T05:05:28;17.25;;;12.73;;
45893;SDS011;31603;51.148;16.932;2022-09-09T05:08:14;16.10;;;12.32;;
45893;SDS011;31603;51.148;16.932;2022-09-09T05:10:52;16.20;;;12.35;;
45893;SDS011;31603;51.148;16.932;2022-09-09T05:13:46;13.27;;;10.45;;
45893;SDS011;31603;51.148;16.932;2022-09-09T05:16:52;18.35;;;14.65;;
45893;SDS011;31603;51.148;16.932;2022-09-09T05:20:23;13.57;;;11.52;;
45893;SDS011;31603;51.148;16.932;2022-09-09T05:23:50;15.95;;;12.15;;
45893;SDS011;31603;51.148;16.932;2022-09-09T05:26:32;15.10;;;11.75;;
45893;SDS011;31603;51.148;16.932;2022-09-09T05:29:02;13.10;;;10.88;;
45893;SDS011;31603;51.148;16.932;2022-09-09T05:31:33;18.52;;;12.20;;
45893;SDS011;31603;51.148;16.932;2022-09-09T05:34:04;19.27;;;11.73;;
45893;SDS011;31603;51.148;16.932;2022-09-09T05:36:36;15.10;;;11.40;;
45893;SDS011;31603;51.148;16.932;2022-09-09T05:39:19;13.85;;;12.00;;
45893;SDS011;31603;51.148;16.932;2022-09-09T05:41:51;12.60;;;10.27;;
45893;SDS011;31603;51.148;16.932;2022-09-09T05:44:37;9.80;;;8.38;;
45893;SDS011;31603;51.148;16.932;2022-09-09T05:47:10;13.15;;;9.80;;
45893;SDS011;31603;51.148;16.932;2022-09-09T05:49:45;12.13;;;8.43;;
45893;SDS011;31603;51.148;16.932;2022-09-09T05:52:15;13.15;;;8.45;;
45893;SDS011;31603;51.148;16.932;2022-09-09T05:54:42;16.05;;;9.02;;
45893;SDS011;31603;51.148;16.932;2022-09-09T05:57:09;11.77;;;8.15;;
45893;SDS011;31603;51.148;16.932;2022-09-09T05:59:38;10.05;;;6.90;;
45893;SDS011;31603;51.148;16.932;2022-09-09T06:02:32;11.30;;;8.70;;
45893;SDS011;31603;51.148;16.932;2022-09-09T06:05:22;10.25;;;7.70;;
45893;SDS011;31603;51.148;16.932;2022-09-09T06:08:49;8.55;;;7.30;;
45893;SDS011;31603;51.148;16.932;2022-09-09T06:11:18;8.38;;;7.43;;
45893;SDS011;31603;51.148;16.932;2022-09-09T06:14:03;12.60;;;7.82;;
45893;SDS011;31603;51.148;16.932;2022-09-09T06:17:33;7.93;;;7.07;;
45893;SDS011;31603;51.148;16.932;2022-09-09T06:20:11;7.25;;;5.80;;
45893;SDS011;31603;51.148;16.932;2022-09-09T06:23:47;8.20;;;5.85;;
45893;SDS011;31603;51.148;16.932;2022-09-09T06:26:46;9.40;;;6.75;;
45893;SDS011;31603;51.148;16.932;2022-09-09T06:29:33;8.68;;;6.78;;
45893;SDS011;31603;51.148;16.932;2022-09-09T06:33:07;7.75;;;6.60;;
45893;SDS011;31603;51.148;16.932;2022-09-09T06:35:40;10.23;;;6.25;;
45893;SDS011;31603;51.148;16.932;2022-09-09T06:38:37;8.85;;;6.57;;
45893;SDS011;31603;51.148;16.932;2022-09-09T06:41:16;6.68;;;5.50;;
45893;SDS011;31603;51.148;16.932;2022-09-09T06:43:50;8.00;;;5.80;;
45893;SDS011;31603;51.148;16.932;2022-09-09T06:46:24;8.27;;;5.93;;
45893;SDS011;31603;51.148;16.932;2022-09-09T06:48:55;7.05;;;5.30;;
45893;SDS011;31603;51.148;16.932;2022-09-09T06:51:26;7.55;;;5.85;;
45893;SDS011;31603;51.148;16.932;2022-09-09T06:54:08;7.55;;;5.05;;
45893;SDS011;31603;51.148;16.932;2022-09-09T06:56:44;5.32;;;4.57;;
45893;SDS011;31603;51.148;16.932;2022-09-09T06:59:16;6.20;;;3.92;;
45893;SDS011;31603;51.148;16.932;2022-09-09T07:01:52;6.90;;;4.40;;
45893;SDS011;31603;51.148;16.932;2022-09-09T07:04:45;4.55;;;3.88;;
45893;SDS011;31603;51.148;16.932;2022-09-09T07:07:17;5.32;;;3.90;;
45893;SDS011;31603;51.148;16.932;2022-09-09T07:09:44;6.05;;;3.72;;
45893;SDS011;31603;51.148;16.932;2022-09-09T07:12:13;6.25;;;4.22;;
45893;SDS011;31603;51.148;16.932;2022-09-09T07:15:11;4.50;;;3.33;;
45893;SDS011;31603;51.148;16.932;2022-09-09T07:17:37;4.43;;;3.05;;
45893;SDS011;31603;51.148;16.932;2022-09-09T07:20:13;5.32;;;3.75;;
45893;SDS011;31603;51.148;16.932;2022-09-09T07:22:43;8.68;;;3.50;;
45893;SDS011;31603;51.148;16.932;2022-09-09T07:25:25;5.65;;;3.00;;
45893;SDS011;31603;51.148;16.932;2022-09-09T07:28:10;5.50;;;2.75;;
45893;SDS011;31603;51.148;16.932;2022-09-09T07:30:36;3.35;;;2.60;;
45893;SDS011;31603;51.148;16.932;2022-09-09T07:33:17;3.58;;;2.65;;
45893;SDS011;31603;51.148;16.932;2022-09-09T07:35:50;3.70;;;2.80;;
45893;SDS011;31603;51.148;16.932;2022-09-09T07:38:32;3.95;;;2.88;;
45893;SDS011;31603;51.148;16.932;2022-09-09T07:41:07;4.00;;;2.92;;
45893;SDS011;31603;51.148;16.932;2022-09-09T07:43:42;4.45;;;2.22;;
45893;SDS011;31603;51.148;16.932;2022-09-09T07:46:25;5.38;;;2.70;;
45893;SDS011;31603;51.148;16.932;2022-09-09T07:49:00;5.03;;;2.38;;
45893;SDS011;31603;51.148;16.932;2022-09-09T07:51:42;3.67;;;2.47;;
45893;SDS011;31603;51.148;16.932;2022-09-09T07:54:17;4.43;;;2.55;;
45893;SDS011;31603;51.148;16.932;2022-09-09T07:57:10;3.90;;;2.25;;
45893;SDS011;31603;51.148;16.932;2022-09-09T07:59:50;2.78;;;2.20;;
45893;SDS011;31603;51.148;16.932;2022-09-09T08:02:20;5.15;;;2.30;;
45893;SDS011;31603;51.148;16.932;2022-09-09T08:04:54;5.20;;;2.65;;
45893;SDS011;31603;51.148;16.932;2022-09-09T08:08:11;3.25;;;1.90;;
45893;SDS011;31603;51.148;16.932;2022-09-09T08:10:39;4.72;;;2.17;;
45893;SDS011;31603;51.148;16.932;2022-09-09T08:13:23;4.25;;;2.17;;
45893;SDS011;31603;51.148;16.932;2022-09-09T08:15:51;2.63;;;1.80;;
45893;SDS011;31603;51.148;16.932;2022-09-09T08:18:31;4.40;;;1.70;;
45893;SDS011;31603;51.148;16.932;2022-09-09T08:21:04;3.33;;;1.73;;
45893;SDS011;31603;51.148;16.932;2022-09-09T08:23:41;3.53;;;1.63;;
45893;SDS011;31603;51.148;16.932;2022-09-09T08:26:17;4.05;;;1.70;;
45893;SDS011;31603;51.148;16.932;2022-09-09T08:29:15;2.50;;;1.60;;
45893;SDS011;31603;51.148;16.932;2022-09-09T08:31:45;5.40;;;1.70;;
45893;SDS011;31603;51.148;16.932;2022-09-09T08:34:26;1.90;;;1.52;;
45893;SDS011;31603;51.148;16.932;2022-09-09T08:36:55;2.97;;;1.33;;
45893;SDS011;31603;51.148;16.932;2022-09-09T08:39:45;2.13;;;1.40;;
45893;SDS011;31603;51.148;16.932;2022-09-09T08:42:24;2.58;;;1.30;;
45893;SDS011;31603;51.148;16.932;2022-09-09T08:45:11;1.92;;;1.23;;
45893;SDS011;31603;51.148;16.932;2022-09-09T08:47:54;4.40;;;1.77;;
45893;SDS011;31603;51.148;16.932;2022-09-09T08:50:41;3.40;;;1.40;;
45893;SDS011;31603;51.148;16.932;2022-09-09T08:53:14;3.08;;;1.23;;
45893;SDS011;31603;51.148;16.932;2022-09-09T08:55:51;3.20;;;1.15;;
45893;SDS011;31603;51.148;16.932;2022-09-09T08:58:20;5.00;;;1.50;;
45893;SDS011;31603;51.148;16.932;2022-09-09T09:03:51;1.83;;;1.38;;
45893;SDS011;31603;51.148;16.932;2022-09-09T09:06:39;4.28;;;1.77;;
45893;SDS011;31603;51.148;16.932;2022-09-09T09:09:22;3.50;;;1.50;;
45893;SDS011;31603;51.148;16.932;2022-09-09T09:12:15;4.65;;;1.20;;
45893;SDS011;31603;51.148;16.932;2022-09-09T09:14:45;1.55;;;0.82;;
45893;SDS011;31603;51.148;16.932;2022-09-09T09:17:14;2.53;;;1.30;;
45893;SDS011;31603;51.148;16.932;2022-09-09T09:19:47;1.33;;;0.97;;
45893;SDS011;31603;51.148;16.932;2022-09-09T09:22:16;4.43;;;1.20;;
45893;SDS011;31603;51.148;16.932;2022-09-09T09:24:56;2.28;;;0.93;;
45893;SDS011;31603;51.148;16.932;2022-09-09T09:27:52;2.40;;;1.10;;
45893;SDS011;31603;51.148;16.932;2022-09-09T09:30:42;3.83;;;1.40;;
45893;SDS011;31603;51.148;16.932;2022-09-09T09:33:17;2.10;;;1.17;;
45893;SDS011;31603;51.148;16.932;2022-09-09T09:35:49;1.58;;;1.02;;
45893;SDS011;31603;51.148;16.932;2022-09-09T09:38:20;3.22;;;1.30;;
45893;SDS011;31603;51.148;16.932;2022-09-09T09:40:49;1.75;;;0.90;;
45893;SDS011;31603;51.148;16.932;2022-09-09T09:43:18;3.35;;;1.20;;
45893;SDS011;31603;51.148;16.932;2022-09-09T09:45:48;3.70;;;1.10;;
45893;SDS011;31603;51.148;16.932;2022-09-09T09:48:14;5.32;;;1.27;;
45893;SDS011;31603;51.148;16.932;2022-09-09T09:50:46;1.73;;;0.93;;
45893;SDS011;31603;51.148;16.932;2022-09-09T09:53:25;2.00;;;1.05;;
45893;SDS011;31603;51.148;16.932;2022-09-09T09:55:59;2.25;;;1.00;;
45893;SDS011;31603;51.148;16.932;2022-09-09T09:58:49;3.45;;;1.50;;
45893;SDS011;31603;51.148;16.932;2022-09-09T10:01:19;2.75;;;1.27;;
45893;SDS011;31603;51.148;16.932;2022-09-09T10:09:20;5.53;;;1.02;;
45893;SDS011;31603;51.148;16.932;2022-09-09T10:11:52;2.58;;;1.30;;
45893;SDS011;31603;51.148;16.932;2022-09-09T10:14:45;1.85;;;0.88;;
45893;SDS011;31603;51.148;16.932;2022-09-09T10:17:24;1.88;;;0.98;;
45893;SDS011;31603;51.148;16.932;2022-09-09T10:23:05;4.60;;;1.27;;
45893;SDS011;31603;51.148;16.932;2022-09-09T10:25:50;2.95;;;1.20;;
45893;SDS011;31603;51.148;16.932;2022-09-09T10:28:37;3.30;;;1.00;;
45893;SDS011;31603;51.148;16.932;2022-09-09T10:31:22;3.58;;;1.13;;
45893;SDS011;31603;51.148;16.932;2022-09-09T10:34:05;4.57;;;1.00;;
45893;SDS011;31603;51.148;16.932;2022-09-09T10:36:54;2.33;;;0.82;;
45893;SDS011;31603;51.148;16.932;2022-09-09T10:39:28;2.83;;;1.38;;
45893;SDS011;31603;51.148;16.932;2022-09-09T10:42:12;4.47;;;1.40;;
45893;SDS011;31603;51.148;16.932;2022-09-09T10:45:23;3.28;;;1.48;;
45893;SDS011;31603;51.148;16.932;2022-09-09T10:48:14;4.20;;;1.40;;
45893;SDS011;31603;51.148;16.932;2022-09-09T10:51:00;4.97;;;1.50;;
45893;SDS011;31603;51.148;16.932;2022-09-09T10:53:41;4.00;;;1.60;;
45893;SDS011;31603;51.148;16.932;2022-09-09T10:56:30;3.22;;;1.10;;
45893;SDS011;31603;51.148;16.932;2022-09-09T10:58:59;2.00;;;1.45;;
45893;SDS011;31603;51.148;16.932;2022-09-09T11:01:46;2.05;;;1.60;;
45893;SDS011;31603;51.148;16.932;2022-09-09T11:04:32;3.65;;;1.58;;
45893;SDS011;31603;51.148;16.932;2022-09-09T11:07:13;2.55;;;1.20;;
45893;SDS011;31603;51.148;16.932;2022-09-09T11:09:47;5.13;;;1.30;;
45893;SDS011;31603;51.148;16.932;2022-09-09T11:12:25;2.85;;;1.30;;
45893;SDS011;31603;51.148;16.932;2022-09-09T11:14:57;2.10;;;1.10;;
45893;SDS011;31603;51.148;16.932;2022-09-09T11:17:46;3.20;;;1.13;;
45893;SDS011;31603;51.148;16.932;2022-09-09T11:20:43;2.60;;;1.45;;
45893;SDS011;31603;51.148;16.932;2022-09-09T11:23:19;1.98;;;1.20;;
45893;SDS011;31603;51.148;16.932;2022-09-09T11:25:52;2.72;;;1.38;;
45893;SDS011;31603;51.148;16.932;2022-09-09T11:28:35;2.28;;;1.20;;
45893;SDS011;31603;51.148;16.932;2022-09-09T11:31:21;3.13;;;1.35;;
45893;SDS011;31603;51.148;16.932;2022-09-09T11:34:25;3.78;;;1.23;;
45893;SDS011;31603;51.148;16.932;2022-09-09T11:37:20;2.22;;;1.10;;
45893;SDS011;31603;51.148;16.932;2022-09-09T11:40:14;3.33;;;1.08;;
45893;SDS011;31603;51.148;16.932;2022-09-09T11:42:46;3.05;;;1.10;;
45893;SDS011;31603;51.148;16.932;2022-09-09T11:45:23;2.55;;;1.00;;
45893;SDS011;31603;51.148;16.932;2022-09-09T11:47:54;2.75;;;1.15;;
45893;SDS011;31603;51.148;16.932;2022-09-09T11:50:56;3.92;;;1.15;;
45893;SDS011;31603;51.148;16.932;2022-09-09T11:53:49;1.15;;;0.70;;
45893;SDS011;31603;51.148;16.932;2022-09-09T11:56:24;1.33;;;0.85;;
45893;SDS011;31603;51.148;16.932;2022-09-09T11:58:57;2.97;;;0.93;;
45893;SDS011;31603;51.148;16.932;2022-09-09T12:01:53;4.47;;;1.10;;
45893;SDS011;31603;51.148;16.932;2022-09-09T12:04:31;2.88;;;1.30;;
45893;SDS011;31603;51.148;16.932;2022-09-09T12:07:26;2.88;;;1.50;;
45893;SDS011;31603;51.148;16.932;2022-09-09T12:10:25;3.58;;;1.73;;
45893;SDS011;31603;51.148;16.932;2022-09-09T12:13:06;3.20;;;1.10;;
45893;SDS011;31603;51.148;16.932;2022-09-09T12:15:46;3.25;;;0.90;;
45893;SDS011;31603;51.148;16.932;2022-09-09T12:21:17;2.38;;;1.00;;
45893;SDS011;31603;51.148;16.932;2022-09-09T12:24:13;1.73;;;0.80;;
45893;SDS011;31603;51.148;16.932;2022-09-09T12:26:50;1.25;;;0.80;;
45893;SDS011;31603;51.148;16.932;2022-09-09T12:29:40;4.15;;;1.02;;
45893;SDS011;31603;51.148;16.932;2022-09-09T12:32:15;2.17;;;0.95;;
45893;SDS011;31603;51.148;16.932;2022-09-09T12:34:53;2.05;;;1.13;;
45893;SDS011;31603;51.148;16.932;2022-09-09T12:37:40;1.65;;;0.90;;
45893;SDS011;31603;51.148;16.932;2022-09-09T12:40:19;1.20;;;0.70;;
45893;SDS011;31603;51.148;16.932;2022-09-09T12:42:49;3.85;;;0.93;;
45893;SDS011;31603;51.148;16.932;2022-09-09T12:45:18;4.25;;;1.30;;
45893;SDS011;31603;51.148;16.932;2022-09-09T12:47:50;2.42;;;0.90;;
45893;SDS011;31603;51.148;16.932;2022-09-09T12:50:25;1.77;;;0.77;;
45893;SDS011;31603;51.148;16.932;2022-09-09T12:52:54;3.50;;;1.67;;
45893;SDS011;31603;51.148;16.932;2022-09-09T12:55:25;1.08;;;0.80;;
45893;SDS011;31603;51.148;16.932;2022-09-09T12:58:11;2.05;;;0.80;;
45893;SDS011;31603;51.148;16.932;2022-09-09T13:00:48;3.03;;;0.70;;
45893;SDS011;31603;51.148;16.932;2022-09-09T13:03:18;2.03;;;0.77;;
45893;SDS011;31603;51.148;16.932;2022-09-09T13:05:47;2.10;;;0.60;;
45893;SDS011;31603;51.148;16.932;2022-09-09T13:08:15;1.65;;;0.90;;
45893;SDS011;31603;51.148;16.932;2022-09-09T13:10:46;1.98;;;1.10;;
45893;SDS011;31603;51.148;16.932;2022-09-09T13:13:22;2.58;;;0.90;;
45893;SDS011;31603;51.148;16.932;2022-09-09T13:18:30;1.00;;;0.90;;
45893;SDS011;31603;51.148;16.932;2022-09-09T13:21:07;2.00;;;0.82;;
45893;SDS011;31603;51.148;16.932;2022-09-09T13:23:41;2.50;;;0.70;;
45893;SDS011;31603;51.148;16.932;2022-09-09T13:26:24;1.58;;;0.52;;
45893;SDS011;31603;51.148;16.932;2022-09-09T13:29:15;2.53;;;1.00;;
45893;SDS011;31603;51.148;16.932;2022-09-09T13:31:48;1.38;;;0.90;;
45893;SDS011;31603;51.148;16.932;2022-09-09T13:34:25;2.92;;;0.90;;
45893;SDS011;31603;51.148;16.932;2022-09-09T13:37:00;0.95;;;0.70;;
45893;SDS011;31603;51.148;16.932;2022-09-09T13:39:50;1.80;;;0.98;;
45893;SDS011;31603;51.148;16.932;2022-09-09T13:42:27;2.05;;;0.70;;
45893;SDS011;31603;51.148;16.932;2022-09-09T13:44:55;3.10;;;0.80;;
45893;SDS011;31603;51.148;16.932;2022-09-09T13:47:28;1.15;;;0.70;;
45893;SDS011;31603;51.148;16.932;2022-09-09T13:50:24;2.50;;;0.70;;
45893;SDS011;31603;51.148;16.932;2022-09-09T13:52:56;2.75;;;0.80;;
45893;SDS011;31603;51.148;16.932;2022-09-09T13:55:24;0.90;;;0.57;;
45893;SDS011;31603;51.148;16.932;2022-09-09T13:57:55;1.67;;;0.75;;
45893;SDS011;31603;51.148;16.932;2022-09-09T14:00:28;1.60;;;0.80;;
45893;SDS011;31603;51.148;16.932;2022-09-09T14:02:56;1.08;;;0.70;;
45893;SDS011;31603;51.148;16.932;2022-09-09T14:05:25;1.27;;;0.75;;
45893;SDS011;31603;51.148;16.932;2022-09-09T14:07:52;1.48;;;0.90;;
45893;SDS011;31603;51.148;16.932;2022-09-09T14:10:20;1.50;;;0.90;;
45893;SDS011;31603;51.148;16.932;2022-09-09T14:12:49;1.20;;;1.00;;
45893;SDS011;31603;51.148;16.932;2022-09-09T14:15:16;1.90;;;0.73;;
45893;SDS011;31603;51.148;16.932;2022-09-09T14:17:42;1.67;;;0.80;;
45893;SDS011;31603;51.148;16.932;2022-09-09T14:20:10;1.52;;;0.60;;
45893;SDS011;31603;51.148;16.932;2022-09-09T14:22:40;4.30;;;0.73;;
45893;SDS011;31603;51.148;16.932;2022-09-09T14:25:07;2.45;;;0.93;;
45893;SDS011;31603;51.148;16.932;2022-09-09T14:30:17;3.42;;;1.02;;
45893;SDS011;31603;51.148;16.932;2022-09-09T14:32:44;1.60;;;0.88;;
45893;SDS011;31603;51.148;16.932;2022-09-09T14:35:11;1.60;;;0.60;;
45893;SDS011;31603;51.148;16.932;2022-09-09T14:37:40;16.70;;;4.90;;
45893;SDS011;31603;51.148;16.932;2022-09-09T14:40:06;2.65;;;1.02;;
45893;SDS011;31603;51.148;16.932;2022-09-09T14:42:41;1.02;;;0.70;;
45893;SDS011;31603;51.148;16.932;2022-09-09T14:45:11;5.53;;;1.98;;
45893;SDS011;31603;51.148;16.932;2022-09-09T14:47:43;5.90;;;1.10;;
45893;SDS011;31603;51.148;16.932;2022-09-09T14:50:10;25.73;;;5.82;;
45893;SDS011;31603;51.148;16.932;2022-09-09T14:52:39;7.90;;;2.25;;
45893;SDS011;31603;51.148;16.932;2022-09-09T14:55:08;8.27;;;2.80;;
45893;SDS011;31603;51.148;16.932;2022-09-09T14:57:35;8.02;;;2.38;;
45893;SDS011;31603;51.148;16.932;2022-09-09T15:00:03;13.13;;;3.67;;
45893;SDS011;31603;51.148;16.932;2022-09-09T15:02:37;4.93;;;2.38;;
45893;SDS011;31603;51.148;16.932;2022-09-09T15:05:08;5.38;;;1.70;;
45893;SDS011;31603;51.148;16.932;2022-09-09T15:07:38;3.20;;;1.23;;
45893;SDS011;31603;51.148;16.932;2022-09-09T15:10:07;4.65;;;1.60;;
45893;SDS011;31603;51.148;16.932;2022-09-09T15:12:34;7.30;;;1.92;;
45893;SDS011;31603;51.148;16.932;2022-09-09T15:15:01;6.78;;;1.90;;
45893;SDS011;31603;51.148;16.932;2022-09-09T15:17:32;5.57;;;1.48;;
45893;SDS011;31603;51.148;16.932;2022-09-09T15:20:00;4.15;;;1.88;;
45893;SDS011;31603;51.148;16.932;2022-09-09T15:22:30;5.53;;;1.90;;
45893;SDS011;31603;51.148;16.932;2022-09-09T15:24:57;5.90;;;2.17;;
45893;SDS011;31603;51.148;16.932;2022-09-09T15:27:23;4.70;;;1.30;;
45893;SDS011;31603;51.148;16.932;2022-09-09T15:29:50;3.28;;;1.80;;
45893;SDS011;31603;51.148;16.932;2022-09-09T15:32:17;4.43;;;1.50;;
45893;SDS011;31603;51.148;16.932;2022-09-09T15:34:44;4.28;;;2.10;;
45893;SDS011;31603;51.148;16.932;2022-09-09T15:37:17;4.03;;;2.00;;
45893;SDS011;31603;51.148;16.932;2022-09-09T15:39:44;1.85;;;1.27;;
45893;SDS011;31603;51.148;16.932;2022-09-09T15:42:10;3.05;;;1.20;;
45893;SDS011;31603;51.148;16.932;2022-09-09T15:44:39;4.30;;;1.25;;
45893;SDS011;31603;51.148;16.932;2022-09-09T15:47:07;1.83;;;1.05;;
45893;SDS011;31603;51.148;16.932;2022-09-09T15:49:37;2.85;;;1.80;;
45893;SDS011;31603;51.148;16.932;2022-09-09T15:52:04;5.63;;;1.63;;
45893;SDS011;31603;51.148;16.932;2022-09-09T15:54:32;4.68;;;1.67;;
45893;SDS011;31603;51.148;16.932;2022-09-09T15:57:01;1.80;;;1.20;;
45893;SDS011;31603;51.148;16.932;2022-09-09T15:59:30;2.97;;;1.30;;
45893;SDS011;31603;51.148;16.932;2022-09-09T16:02:03;3.00;;;1.30;;
45893;SDS011;31603;51.148;16.932;2022-09-09T16:04:34;6.65;;;1.40;;
45893;SDS011;31603;51.148;16.932;2022-09-09T16:07:02;3.88;;;2.03;;
45893;SDS011;31603;51.148;16.932;2022-09-09T16:09:34;4.05;;;1.60;;
45893;SDS011;31603;51.148;16.932;2022-09-09T16:12:02;3.58;;;1.45;;
45893;SDS011;31603;51.148;16.932;2022-09-09T16:14:31;4.15;;;1.48;;
45893;SDS011;31603;51.148;16.932;2022-09-09T16:17:00;3.30;;;1.50;;